Time;durP1;ratioP1;P1;durP2;ratioP2;P2;SDS_P1;SDS_P2;PMS_P1;PMS_P2;Temp;Humidity;BMP_temperature;BMP_pressure;BME280_temperature;BME280_humidity;BME280_pressure;Samples;Min_cycle;Max_cycle;Signal;HPM_P1;HPM_P2
2022/03/06 00:01:13;;;;;;;2.83;0.90;;;;;;;;;;5012749;28;20497;-71
2022/03/06 00:03:41;;;;;;;2.20;1.58;;;;;;;;;;5012224;28;20052;-71
2022/03/06 00:06:08;;;;;;;1.40;1.15;;;;;;;;;;5011017;28;20041;-74
2022/03/06 00:08:35;;;;;;;1.90;1.15;;;;;;;;;;5012610;28;20048;-74
2022/03/06 00:11:04;;;;;;;1.88;1.20;;;;;;;;;;4995016;28;20133;-72
2022/03/06 00:13:33;;;;;;;1.38;1.27;;;;;;;;;;5008624;28;20038;-74
2022/03/06 00:16:00;;;;;;;1.85;1.30;;;;;;;;;;5011957;28;20038;-76
2022/03/06 00:18:28;;;;;;;1.20;1.10;;;;;;;;;;5012295;28;20331;-71
2022/03/06 00:20:58;;;;;;;1.48;1.13;;;;;;;;;;5012456;28;20058;-76
2022/03/06 00:23:28;;;;;;;1.20;1.10;;;;;;;;;;5012276;28;20500;-75
2022/03/06 00:25:55;;;;;;;1.25;1.15;;;;;;;;;;5011055;28;20137;-72
2022/03/06 00:28:23;;;;;;;2.40;1.30;;;;;;;;;;5011899;28;20531;-74
2022/03/06 00:30:50;;;;;;;1.40;1.30;;;;;;;;;;5010760;28;20052;-76
2022/03/06 00:33:18;;;;;;;1.83;1.55;;;;;;;;;;5012293;28;20104;-76
2022/03/06 00:35:46;;;;;;;1.23;1.13;;;;;;;;;;5012263;28;20053;-75
2022/03/06 00:38:14;;;;;;;1.30;1.20;;;;;;;;;;5010919;28;20041;-72
2022/03/06 00:40:44;;;;;;;2.13;1.13;;;;;;;;;;4994471;28;20049;-77
2022/03/06 00:43:12;;;;;;;4.25;1.15;;;;;;;;;;5010978;28;20061;-74
2022/03/06 00:45:39;;;;;;;2.10;1.20;;;;;;;;;;4994678;28;20046;-76
2022/03/06 00:48:09;;;;;;;1.48;1.33;;;;;;;;;;5012534;28;20087;-76
2022/03/06 00:50:40;;;;;;;2.40;1.15;;;;;;;;;;5012278;28;20038;-71
2022/03/06 00:53:08;;;;;;;2.00;1.30;;;;;;;;;;5010906;28;20033;-72
2022/03/06 00:55:37;;;;;;;2.05;1.20;;;;;;;;;;5011333;28;20042;-74
2022/03/06 00:58:09;;;;;;;2.05;1.40;;;;;;;;;;5012666;28;20053;-74
2022/03/06 01:00:37;;;;;;;4.57;1.90;;;;;;;;;;5012638;28;20080;-72
2022/03/06 01:03:06;;;;;;;2.20;1.25;;;;;;;;;;5012434;28;20034;-71
2022/03/06 01:05:34;;;;;;;2.33;1.08;;;;;;;;;;5012033;28;20037;-74
2022/03/06 01:08:02;;;;;;;1.77;1.20;;;;;;;;;;5012133;28;20066;-76
2022/03/06 01:10:29;;;;;;;0.93;0.93;;;;;;;;;;5010910;28;20034;-74
2022/03/06 01:12:57;;;;;;;3.05;1.15;;;;;;;;;;5011294;28;20046;-75
2022/03/06 01:15:24;;;;;;;1.95;1.60;;;;;;;;;;5010759;28;20042;-74
2022/03/06 01:17:52;;;;;;;1.20;1.10;;;;;;;;;;5011869;28;20042;-76
2022/03/06 01:20:20;;;;;;;2.20;1.20;;;;;;;;;;5014928;28;20119;-74
2022/03/06 01:22:48;;;;;;;1.35;1.00;;;;;;;;;;5014461;28;20042;-76
2022/03/06 01:25:15;;;;;;;2.65;1.05;;;;;;;;;;5014395;28;20073;-73
2022/03/06 01:27:45;;;;;;;4.28;1.10;;;;;;;;;;5013895;28;20505;-74
2022/03/06 01:30:17;;;;;;;2.05;1.10;;;;;;;;;;5015741;28;20042;-76
2022/03/06 01:32:44;;;;;;;1.63;1.10;;;;;;;;;;5014216;28;20502;-72
2022/03/06 01:35:12;;;;;;;1.55;1.00;;;;;;;;;;5015888;28;20038;-71
2022/03/06 01:37:40;;;;;;;0.95;0.95;;;;;;;;;;5015680;28;20121;-71
2022/03/06 01:40:08;;;;;;;2.45;1.20;;;;;;;;;;5011268;28;20072;-74
2022/03/06 01:42:39;;;;;;;1.30;1.10;;;;;;;;;;5015701;28;20404;-76
2022/03/06 01:45:08;;;;;;;2.75;1.00;;;;;;;;;;5015607;28;20042;-76
2022/03/06 01:47:39;;;;;;;1.73;1.10;;;;;;;;;;5014221;28;20046;-75
2022/03/06 01:50:10;;;;;;;1.95;0.90;;;;;;;;;;5014224;28;20038;-77
2022/03/06 01:52:37;;;;;;;1.58;0.90;;;;;;;;;;5014968;28;20049;-73
2022/03/06 01:55:05;;;;;;;1.40;1.10;;;;;;;;;;5003594;28;20058;-74
2022/03/06 01:57:34;;;;;;;1.23;1.02;;;;;;;;;;5011056;28;20558;-73
2022/03/06 02:00:02;;;;;;;0.95;0.95;;;;;;;;;;4995936;28;20094;-74
2022/03/06 02:02:38;;;;;;;1.02;0.90;;;;;;;;;;4995504;28;20046;-72
2022/03/06 02:05:07;;;;;;;2.22;1.75;;;;;;;;;;5010529;28;20050;-72
2022/03/06 02:07:34;;;;;;;1.50;1.15;;;;;;;;;;4995462;28;20050;-75
2022/03/06 02:10:02;;;;;;;2.17;1.02;;;;;;;;;;4995280;28;20042;-72
2022/03/06 02:12:30;;;;;;;1.23;1.10;;;;;;;;;;4995264;28;20035;-73
2022/03/06 02:14:59;;;;;;;2.22;1.50;;;;;;;;;;4995351;28;20425;-74
2022/03/06 02:17:27;;;;;;;2.67;1.27;;;;;;;;;;5009792;28;20053;-74
2022/03/06 02:19:59;;;;;;;2.70;1.58;;;;;;;;;;4995157;28;20061;-74
2022/03/06 02:22:28;;;;;;;2.45;1.50;;;;;;;;;;5010459;28;20046;-76
2022/03/06 02:24:56;;;;;;;1.25;1.17;;;;;;;;;;5009983;28;20097;-77
2022/03/06 02:27:24;;;;;;;1.08;1.05;;;;;;;;;;4995135;28;20049;-75
2022/03/06 02:29:52;;;;;;;1.65;1.35;;;;;;;;;;4994177;28;20039;-75
2022/03/06 02:32:21;;;;;;;2.22;1.15;;;;;;;;;;5009963;28;20126;-75
2022/03/06 02:34:49;;;;;;;1.30;1.20;;;;;;;;;;5010047;28;20056;-77
2022/03/06 02:37:18;;;;;;;2.22;1.88;;;;;;;;;;5009994;28;20433;-77
2022/03/06 02:39:47;;;;;;;1.55;1.13;;;;;;;;;;4993176;28;20050;-72
2022/03/06 02:42:43;;;;;;;1.40;1.30;;;;;;;;;;5011565;28;20053;-72
2022/03/06 02:45:12;;;;;;;1.60;1.50;;;;;;;;;;4997426;28;20078;-74
2022/03/06 02:47:40;;;;;;;1.33;1.23;;;;;;;;;;4996056;28;20385;-72
2022/03/06 02:50:09;;;;;;;1.83;1.40;;;;;;;;;;5012737;28;20042;-77
2022/03/06 02:52:37;;;;;;;1.48;1.30;;;;;;;;;;5012897;28;20042;-74
2022/03/06 02:55:06;;;;;;;4.45;1.75;;;;;;;;;;5013149;28;20042;-78
2022/03/06 02:57:34;;;;;;;1.58;1.30;;;;;;;;;;5014235;28;20038;-74
2022/03/06 03:00:02;;;;;;;1.50;1.38;;;;;;;;;;5012938;28;20046;-74
2022/03/06 03:02:29;;;;;;;2.25;1.60;;;;;;;;;;5014102;28;20120;-77
2022/03/06 03:04:57;;;;;;;5.05;3.10;;;;;;;;;;5012300;28;20500;-73
2022/03/06 03:07:25;;;;;;;4.43;2.45;;;;;;;;;;5012628;28;20050;-72
2022/03/06 03:09:52;;;;;;;3.67;1.55;;;;;;;;;;5012673;28;20459;-79
2022/03/06 03:12:20;;;;;;;1.67;1.55;;;;;;;;;;5014007;28;20045;-74
2022/03/06 03:14:47;;;;;;;2.85;1.98;;;;;;;;;;5014057;28;20045;-72
2022/03/06 03:17:15;;;;;;;1.55;1.45;;;;;;;;;;5013547;28;20089;-75
2022/03/06 03:19:43;;;;;;;1.55;1.45;;;;;;;;;;5013537;28;20050;-77
2022/03/06 03:22:10;;;;;;;2.75;1.58;;;;;;;;;;5013676;28;20042;-75
2022/03/06 03:24:38;;;;;;;2.95;1.88;;;;;;;;;;5013296;28;20050;-77
2022/03/06 03:27:06;;;;;;;1.50;1.40;;;;;;;;;;5013663;28;20125;-76
2022/03/06 03:29:33;;;;;;;2.67;1.70;;;;;;;;;;5012837;28;20042;-72
2022/03/06 03:32:01;;;;;;;1.75;1.40;;;;;;;;;;5013749;28;20118;-73
2022/03/06 03:34:28;;;;;;;4.35;1.70;;;;;;;;;;5013547;28;20042;-76
2022/03/06 03:36:56;;;;;;;5.85;2.58;;;;;;;;;;5013216;28;20120;-71
2022/03/06 03:39:23;;;;;;;3.75;1.90;;;;;;;;;;5013401;28;20045;-76
2022/03/06 03:41:51;;;;;;;2.55;1.77;;;;;;;;;;5012672;28;20056;-73
2022/03/06 03:44:19;;;;;;;3.45;1.83;;;;;;;;;;5011833;28;20417;-73
2022/03/06 03:46:46;;;;;;;2.78;1.85;;;;;;;;;;5013085;28;20050;-73
2022/03/06 03:49:17;;;;;;;3.85;1.98;;;;;;;;;;5013002;28;20063;-73
2022/03/06 03:51:45;;;;;;;4.18;1.90;;;;;;;;;;5011855;28;20049;-74
2022/03/06 03:54:13;;;;;;;4.03;2.10;;;;;;;;;;5012995;28;20124;-73
2022/03/06 03:56:42;;;;;;;3.63;2.17;;;;;;;;;;5013245;28;20045;-74
2022/03/06 03:59:12;;;;;;;2.97;2.20;;;;;;;;;;5013028;28;20048;-74
2022/03/06 04:01:40;;;;;;;5.28;2.45;;;;;;;;;;5013163;28;20121;-73
2022/03/06 04:04:08;;;;;;;2.38;1.77;;;;;;;;;;5011560;28;20397;-74
2022/03/06 04:06:35;;;;;;;2.28;1.88;;;;;;;;;;5012664;28;20108;-74
2022/03/06 04:09:03;;;;;;;5.70;3.17;;;;;;;;;;5012967;28;20085;-74
2022/03/06 04:11:30;;;;;;;2.42;2.20;;;;;;;;;;5012938;28;20046;-73
2022/03/06 04:13:58;;;;;;;4.25;2.65;;;;;;;;;;5013055;28;20052;-72
2022/03/06 04:16:25;;;;;;;6.30;2.50;;;;;;;;;;5012289;28;20040;-77
2022/03/06 04:18:54;;;;;;;2.92;2.08;;;;;;;;;;5012581;28;20084;-73
2022/03/06 04:21:22;;;;;;;4.20;2.40;;;;;;;;;;5011304;28;20442;-74
2022/03/06 04:23:49;;;;;;;3.65;2.45;;;;;;;;;;5011641;28;20049;-79
2022/03/06 04:26:17;;;;;;;4.18;2.40;;;;;;;;;;5012552;28;20046;-77
2022/03/06 04:28:44;;;;;;;4.97;2.50;;;;;;;;;;5012237;28;20176;-75
2022/03/06 04:31:12;;;;;;;5.57;2.83;;;;;;;;;;5011105;28;20045;-74
2022/03/06 04:33:40;;;;;;;3.33;2.33;;;;;;;;;;5011432;28;20103;-74
2022/03/06 04:36:08;;;;;;;4.78;2.70;;;;;;;;;;5012444;28;20045;-72
2022/03/06 04:38:35;;;;;;;3.70;3.22;;;;;;;;;;5012676;28;20064;-74
2022/03/06 04:41:04;;;;;;;6.18;3.03;;;;;;;;;;5012580;28;20384;-72
2022/03/06 04:43:31;;;;;;;6.20;3.33;;;;;;;;;;5011129;28;20038;-73
2022/03/06 04:45:59;;;;;;;2.83;2.50;;;;;;;;;;5012345;28;20133;-72
2022/03/06 04:48:26;;;;;;;11.18;2.50;;;;;;;;;;5011182;28;20120;-77
2022/03/06 04:50:54;;;;;;;4.40;2.20;;;;;;;;;;5012278;28;20041;-76
2022/03/06 04:53:22;;;;;;;5.28;2.33;;;;;;;;;;5013898;28;20492;-72
2022/03/06 04:55:50;;;;;;;4.55;2.05;;;;;;;;;;5016539;28;20121;-77
2022/03/06 04:58:17;;;;;;;3.60;2.38;;;;;;;;;;5015990;28;20053;-72
2022/03/06 05:00:45;;;;;;;2.17;2.00;;;;;;;;;;5016509;28;20045;-72
2022/03/06 05:03:12;;;;;;;4.28;2.53;;;;;;;;;;5014652;28;20058;-78
2022/03/06 05:05:40;;;;;;;4.75;2.67;;;;;;;;;;5015862;28;20056;-72
2022/03/06 05:08:08;;;;;;;4.90;2.50;;;;;;;;;;5014671;28;20045;-72
2022/03/06 05:10:36;;;;;;;4.53;2.60;;;;;;;;;;5016054;28;20113;-77
2022/03/06 05:13:04;;;;;;;3.10;2.28;;;;;;;;;;5014766;28;20500;-74
2022/03/06 05:15:31;;;;;;;2.97;2.42;;;;;;;;;;5016003;28;20060;-77
2022/03/06 05:18:01;;;;;;;3.95;2.33;;;;;;;;;;5014451;28;20052;-73
2022/03/06 05:20:29;;;;;;;2.47;2.28;;;;;;;;;;5014746;28;20081;-72
2022/03/06 05:22:56;;;;;;;3.90;2.55;;;;;;;;;;5014407;28;20057;-73
2022/03/06 05:25:24;;;;;;;3.60;2.33;;;;;;;;;;5015897;28;20038;-72
2022/03/06 05:27:51;;;;;;;4.00;3.00;;;;;;;;;;5014367;28;20050;-77
2022/03/06 05:30:19;;;;;;;3.70;2.70;;;;;;;;;;5015645;28;20042;-72
2022/03/06 05:32:47;;;;;;;4.20;2.40;;;;;;;;;;5015599;28;20042;-72
2022/03/06 05:35:15;;;;;;;4.20;2.78;;;;;;;;;;5015956;28;20125;-73
2022/03/06 05:37:42;;;;;;;4.35;2.38;;;;;;;;;;5014782;28;20149;-77
2022/03/06 05:40:11;;;;;;;4.25;2.35;;;;;;;;;;5015126;28;20124;-75
2022/03/06 05:42:39;;;;;;;4.68;2.67;;;;;;;;;;5014320;28;20050;-73
2022/03/06 05:45:06;;;;;;;2.42;2.20;;;;;;;;;;5015347;28;20053;-74
2022/03/06 05:47:34;;;;;;;4.95;2.60;;;;;;;;;;5015514;28;20117;-72
2022/03/06 05:50:02;;;;;;;5.07;2.40;;;;;;;;;;5015415;28;20042;-72
2022/03/06 05:52:29;;;;;;;4.20;2.70;;;;;;;;;;5015093;28;20045;-72
2022/03/06 05:54:57;;;;;;;3.28;2.55;;;;;;;;;;5015197;28;20098;-72
2022/03/06 05:57:25;;;;;;;3.30;2.42;;;;;;;;;;5015149;28;20038;-75
2022/03/06 05:59:53;;;;;;;3.53;2.65;;;;;;;;;;5014015;28;20112;-72
2022/03/06 06:02:21;;;;;;;4.65;3.30;;;;;;;;;;5014994;28;20037;-75
2022/03/06 06:04:49;;;;;;;7.55;3.55;;;;;;;;;;5014085;28;20038;-74
2022/03/06 06:07:17;;;;;;;8.13;4.20;;;;;;;;;;5013648;28;20046;-74
2022/03/06 06:09:45;;;;;;;8.45;3.72;;;;;;;;;;5013256;28;20045;-72
2022/03/06 06:12:12;;;;;;;7.47;3.42;;;;;;;;;;5013646;28;20042;-73
2022/03/06 06:14:39;;;;;;;6.22;3.40;;;;;;;;;;5014857;28;20034;-73
2022/03/06 06:17:08;;;;;;;6.10;3.28;;;;;;;;;;5014523;28;20038;-75
2022/03/06 06:19:36;;;;;;;4.75;3.42;;;;;;;;;;5013280;28;20049;-74
2022/03/06 06:22:05;;;;;;;8.70;3.50;;;;;;;;;;5014689;28;20038;-77
2022/03/06 06:24:32;;;;;;;6.35;3.47;;;;;;;;;;5013305;28;20576;-72
2022/03/06 06:27:00;;;;;;;5.80;3.45;;;;;;;;;;5014561;28;20382;-74
2022/03/06 06:29:28;;;;;;;5.53;3.10;;;;;;;;;;5014174;28;20038;-72
2022/03/06 06:31:56;;;;;;;6.93;3.80;;;;;;;;;;5014642;28;20121;-72
2022/03/06 06:34:23;;;;;;;8.85;4.53;;;;;;;;;;5014720;28;20034;-73
2022/03/06 06:36:51;;;;;;;8.00;3.67;;;;;;;;;;5013367;28;20115;-75
2022/03/06 06:39:18;;;;;;;10.18;4.93;;;;;;;;;;5013421;28;20034;-76
2022/03/06 06:41:46;;;;;;;7.55;5.20;;;;;;;;;;5014313;28;20128;-74
2022/03/06 06:44:14;;;;;;;8.40;4.82;;;;;;;;;;5014485;28;20064;-72
2022/03/06 06:46:42;;;;;;;8.85;5.32;;;;;;;;;;5013154;28;20117;-75
2022/03/06 06:49:10;;;;;;;11.25;5.18;;;;;;;;;;5012949;28;20468;-72
2022/03/06 06:51:44;;;;;;;8.82;4.68;;;;;;;;;;5013816;28;20053;-76
2022/03/06 06:54:13;;;;;;;11.90;5.05;;;;;;;;;;5013929;28;20042;-77
2022/03/06 06:56:44;;;;;;;8.40;3.90;;;;;;;;;;5013712;28;20089;-76
2022/03/06 06:59:13;;;;;;;8.20;4.80;;;;;;;;;;5005301;28;20129;-77
2022/03/06 07:01:41;;;;;;;9.35;4.97;;;;;;;;;;4993812;28;20042;-72
2022/03/06 07:04:09;;;;;;;11.15;4.90;;;;;;;;;;4994442;28;20050;-76
2022/03/06 07:06:37;;;;;;;10.55;4.20;;;;;;;;;;4994497;28;20057;-72
2022/03/06 07:09:04;;;;;;;7.82;4.03;;;;;;;;;;4994284;28;20043;-74
2022/03/06 07:11:32;;;;;;;7.57;4.30;;;;;;;;;;4995038;28;20045;-77
2022/03/06 07:14:00;;;;;;;8.32;4.22;;;;;;;;;;4993851;28;20046;-74
2022/03/06 07:16:31;;;;;;;8.02;3.90;;;;;;;;;;4993109;28;20045;-76
2022/03/06 07:19:00;;;;;;;13.02;4.50;;;;;;;;;;5019922;23;20056;-78
2022/03/06 07:21:28;;;;;;;10.23;4.35;;;;;;;;;;5050315;28;20037;-75
2022/03/06 07:23:56;;;;;;;11.70;4.70;;;;;;;;;;5051273;28;20045;-73
2022/03/06 07:26:23;;;;;;;9.50;4.20;;;;;;;;;;5045918;28;20044;-72
2022/03/06 07:28:50;;;;;;;8.35;4.50;;;;;;;;;;5038807;28;20166;-73
2022/03/06 07:31:18;;;;;;;9.48;4.03;;;;;;;;;;5044702;28;20076;-73
2022/03/06 07:33:45;;;;;;;12.13;4.40;;;;;;;;;;5044445;28;20037;-72
2022/03/06 07:36:13;;;;;;;9.95;4.10;;;;;;;;;;5035686;28;20132;-71
2022/03/06 07:38:41;;;;;;;10.55;3.97;;;;;;;;;;5042931;28;20063;-75
2022/03/06 07:41:08;;;;;;;9.63;3.70;;;;;;;;;;5044551;28;20124;-75
2022/03/06 07:43:36;;;;;;;5.57;3.83;;;;;;;;;;5042806;28;20045;-71
2022/03/06 07:46:03;;;;;;;8.40;4.20;;;;;;;;;;5038930;28;20134;-71
2022/03/06 07:48:31;;;;;;;10.70;5.18;;;;;;;;;;5041394;28;20435;-72
2022/03/06 07:50:58;;;;;;;10.32;4.93;;;;;;;;;;5051237;28;20385;-72
2022/03/06 07:53:26;;;;;;;9.38;5.22;;;;;;;;;;5046670;28;20136;-76
2022/03/06 07:55:54;;;;;;;10.15;4.35;;;;;;;;;;5046446;28;20074;-73
2022/03/06 07:58:21;;;;;;;9.70;5.13;;;;;;;;;;5052532;28;20044;-73
2022/03/06 08:00:49;;;;;;;13.75;5.47;;;;;;;;;;5035514;28;20422;-76
2022/03/06 08:03:17;;;;;;;7.55;3.95;;;;;;;;;;5031938;28;20041;-76
2022/03/06 08:05:45;;;;;;;6.30;3.72;;;;;;;;;;5032141;28;20091;-77
2022/03/06 08:08:13;;;;;;;6.10;3.80;;;;;;;;;;5032703;28;20048;-76
2022/03/06 08:10:40;;;;;;;9.23;4.25;;;;;;;;;;5036760;28;20087;-72
2022/03/06 08:13:08;;;;;;;7.18;4.00;;;;;;;;;;5051258;28;20037;-76
2022/03/06 08:15:36;;;;;;;6.40;3.80;;;;;;;;;;5051635;28;20103;-72
2022/03/06 08:18:04;;;;;;;9.85;4.30;;;;;;;;;;5050760;28;20442;-74
2022/03/06 08:20:32;;;;;;;8.50;4.18;;;;;;;;;;5034523;28;20041;-72
2022/03/06 08:23:00;;;;;;;8.23;4.22;;;;;;;;;;5051832;28;20518;-75
2022/03/06 08:25:28;;;;;;;7.90;4.20;;;;;;;;;;5051885;28;20059;-72
2022/03/06 08:27:55;;;;;;;6.45;3.80;;;;;;;;;;5052679;28;20056;-76
2022/03/06 08:30:23;;;;;;;9.30;3.95;;;;;;;;;;5058215;28;20037;-74
2022/03/06 08:32:51;;;;;;;8.52;4.10;;;;;;;;;;5058051;28;20044;-75
2022/03/06 08:35:19;;;;;;;8.07;4.57;;;;;;;;;;5037041;28;20396;-72
2022/03/06 08:37:47;;;;;;;7.22;4.25;;;;;;;;;;5050327;28;20056;-71
2022/03/06 08:40:14;;;;;;;7.07;4.25;;;;;;;;;;5058738;28;20037;-73
2022/03/06 08:42:42;;;;;;;6.55;3.97;;;;;;;;;;5058127;28;20044;-73
2022/03/06 08:45:09;;;;;;;6.45;3.58;;;;;;;;;;5058142;28;20123;-73
2022/03/06 08:47:37;;;;;;;5.63;3.60;;;;;;;;;;5057160;28;20037;-73
2022/03/06 08:50:05;;;;;;;6.03;3.92;;;;;;;;;;5056921;28;20751;-73
2022/03/06 08:52:33;;;;;;;7.70;4.05;;;;;;;;;;5051492;28;20037;-73
2022/03/06 08:55:00;;;;;;;6.13;3.80;;;;;;;;;;5058219;28;20040;-73
2022/03/06 08:57:27;;;;;;;9.00;4.43;;;;;;;;;;5058171;28;20037;-76
2022/03/06 08:59:55;;;;;;;8.15;3.67;;;;;;;;;;5057322;28;20389;-74
2022/03/06 09:02:22;;;;;;;6.07;3.70;;;;;;;;;;5052087;28;20123;-73
2022/03/06 09:04:50;;;;;;;8.77;4.43;;;;;;;;;;5055793;28;20090;-74
2022/03/06 09:07:18;;;;;;;6.15;4.10;;;;;;;;;;5056605;28;20068;-73
2022/03/06 09:09:45;;;;;;;9.20;4.80;;;;;;;;;;5056763;28;20037;-72
2022/03/06 09:12:13;;;;;;;9.18;5.10;;;;;;;;;;5056760;28;20043;-74
2022/03/06 09:14:41;;;;;;;9.73;5.28;;;;;;;;;;5038613;28;20049;-76
2022/03/06 09:17:11;;;;;;;7.90;4.40;;;;;;;;;;5056014;28;20041;-73
2022/03/06 09:19:39;;;;;;;13.32;5.72;;;;;;;;;;5058491;28;20056;-76
2022/03/06 09:22:07;;;;;;;8.23;4.25;;;;;;;;;;5058553;28;20051;-72
2022/03/06 09:24:34;;;;;;;6.50;3.42;;;;;;;;;;5058710;28;20067;-72
2022/03/06 09:27:02;;;;;;;6.82;3.78;;;;;;;;;;5057930;28;20041;-74
2022/03/06 09:29:29;;;;;;;11.02;4.10;;;;;;;;;;5056495;28;20488;-74
2022/03/06 09:31:57;;;;;;;8.32;4.00;;;;;;;;;;5056562;28;20091;-73
2022/03/06 09:34:24;;;;;;;7.85;3.83;;;;;;;;;;5057888;28;20033;-75
2022/03/06 09:36:52;;;;;;;8.82;3.85;;;;;;;;;;5055461;28;20041;-73
2022/03/06 09:39:19;;;;;;;5.95;3.70;;;;;;;;;;5055924;28;20025;-75
2022/03/06 09:41:49;;;;;;;7.32;3.70;;;;;;;;;;5055105;28;20141;-76
2022/03/06 09:44:17;;;;;;;5.55;3.65;;;;;;;;;;5054985;28;20095;-76
2022/03/06 09:46:45;;;;;;;7.15;4.00;;;;;;;;;;5054735;28;20045;-74
2022/03/06 09:49:12;;;;;;;7.15;4.68;;;;;;;;;;5055249;28;20048;-72
2022/03/06 09:51:41;;;;;;;5.38;3.60;;;;;;;;;;5053830;28;20124;-75
2022/03/06 09:54:09;;;;;;;9.90;6.30;;;;;;;;;;5039112;28;20045;-73
2022/03/06 09:56:36;;;;;;;8.13;3.90;;;;;;;;;;5041703;28;20117;-73
2022/03/06 09:59:04;;;;;;;12.25;6.97;;;;;;;;;;5045213;28;20046;-73
2022/03/06 10:01:31;;;;;;;7.25;4.10;;;;;;;;;;5033377;28;20109;-73
2022/03/06 10:04:20;;;;;;;5.72;3.58;;;;;;;;;;5034624;28;20096;-76
2022/03/06 10:07:00;;;;;;;6.07;3.85;;;;;;;;;;5034603;28;20073;-72
2022/03/06 10:09:28;;;;;;;7.40;3.92;;;;;;;;;;5033467;28;20076;-74
2022/03/06 10:11:55;;;;;;;5.82;3.78;;;;;;;;;;5033383;28;20381;-73
2022/03/06 10:14:40;;;;;;;3.85;3.15;;;;;;;;;;5033395;28;20043;-75
2022/03/06 10:17:11;;;;;;;7.72;3.65;;;;;;;;;;5034454;28;20052;-73
2022/03/06 10:19:48;;;;;;;8.23;3.67;;;;;;;;;;5034290;28;20057;-76
2022/03/06 10:22:16;;;;;;;4.97;3.60;;;;;;;;;;5034544;28;20061;-73
2022/03/06 10:24:47;;;;;;;5.65;3.47;;;;;;;;;;5034425;28;20416;-74
2022/03/06 10:27:15;;;;;;;5.18;3.20;;;;;;;;;;5042325;28;20119;-75
2022/03/06 10:29:42;;;;;;;9.63;3.65;;;;;;;;;;5052709;28;20135;-75
2022/03/06 10:32:11;;;;;;;5.75;3.60;;;;;;;;;;5054261;28;20065;-77
2022/03/06 10:34:39;;;;;;;7.30;3.60;;;;;;;;;;5053774;28;20068;-77
2022/03/06 10:37:07;;;;;;;5.90;3.40;;;;;;;;;;5050310;28;20037;-75
2022/03/06 10:39:45;;;;;;;6.68;3.50;;;;;;;;;;5052366;28;20040;-73
2022/03/06 10:42:20;;;;;;;4.78;3.13;;;;;;;;;;5052186;28;20056;-74
2022/03/06 10:44:48;;;;;;;4.00;2.90;;;;;;;;;;5054085;28;20492;-71
2022/03/06 10:47:18;;;;;;;5.60;3.50;;;;;;;;;;5053977;28;20041;-72
2022/03/06 10:50:06;;;;;;;10.52;3.92;;;;;;;;;;5053770;28;20112;-77
2022/03/06 10:52:44;;;;;;;4.65;3.72;;;;;;;;;;5036114;28;20051;-72
2022/03/06 10:55:11;;;;;;;6.07;3.42;;;;;;;;;;5054049;28;20040;-72
2022/03/06 10:57:40;;;;;;;4.45;3.22;;;;;;;;;;5054190;28;20072;-72
2022/03/06 11:00:07;;;;;;;6.63;3.35;;;;;;;;;;5053750;28;20041;-73
2022/03/06 11:02:36;;;;;;;7.75;3.45;;;;;;;;;;5053670;28;20495;-72
2022/03/06 11:05:04;;;;;;;5.97;4.03;;;;;;;;;;5053329;28;20072;-76
2022/03/06 11:07:34;;;;;;;5.97;3.42;;;;;;;;;;5052599;28;20091;-72
2022/03/06 11:10:03;;;;;;;5.55;3.80;;;;;;;;;;5053512;28;20040;-74
2022/03/06 11:12:32;;;;;;;7.80;3.20;;;;;;;;;;5052189;28;20041;-72
2022/03/06 11:15:00;;;;;;;6.55;3.17;;;;;;;;;;5053730;28;20124;-76
2022/03/06 11:17:28;;;;;;;5.80;3.97;;;;;;;;;;5053158;28;20562;-76
2022/03/06 11:19:56;;;;;;;4.97;3.33;;;;;;;;;;5052096;28;20060;-72
2022/03/06 11:22:32;;;;;;;7.60;3.33;;;;;;;;;;5053299;28;20041;-72
2022/03/06 11:25:03;;;;;;;4.03;2.72;;;;;;;;;;5053387;28;20196;-74
2022/03/06 11:27:43;;;;;;;5.93;2.88;;;;;;;;;;5053343;28;20056;-72
2022/03/06 11:30:21;;;;;;;4.30;2.83;;;;;;;;;;5053129;28;20045;-75
2022/03/06 11:33:03;;;;;;;4.60;2.92;;;;;;;;;;5053161;28;20523;-76
2022/03/06 11:35:41;;;;;;;4.95;3.10;;;;;;;;;;5051509;28;20380;-72
2022/03/06 11:38:11;;;;;;;3.55;2.78;;;;;;;;;;5052220;28;20068;-71
2022/03/06 11:40:59;;;;;;;4.55;3.08;;;;;;;;;;5051231;28;20124;-71
2022/03/06 11:43:38;;;;;;;7.72;4.10;;;;;;;;;;5051419;28;20466;-74
2022/03/06 11:46:08;;;;;;;5.22;3.08;;;;;;;;;;5052714;28;20075;-71
2022/03/06 11:48:36;;;;;;;12.45;4.55;;;;;;;;;;5052841;28;20041;-73
2022/03/06 11:51:17;;;;;;;8.40;4.10;;;;;;;;;;5052706;28;20037;-70
2022/03/06 11:53:48;;;;;;;8.88;5.03;;;;;;;;;;5052207;28;20041;-71
2022/03/06 11:56:36;;;;;;;8.73;4.47;;;;;;;;;;5052714;28;20059;-72
2022/03/06 11:59:07;;;;;;;8.68;4.38;;;;;;;;;;5035802;28;20060;-76
2022/03/06 12:01:36;;;;;;;9.00;4.38;;;;;;;;;;5051210;28;20131;-71
2022/03/06 12:04:07;;;;;;;8.88;4.00;;;;;;;;;;5048147;28;20033;-71
2022/03/06 12:06:41;;;;;;;5.60;3.60;;;;;;;;;;5044733;28;20034;-70
2022/03/06 12:09:13;;;;;;;7.80;3.60;;;;;;;;;;5038397;28;20124;-70
2022/03/06 12:11:43;;;;;;;5.10;3.45;;;;;;;;;;5049891;28;20055;-71
2022/03/06 12:14:21;;;;;;;9.07;4.00;;;;;;;;;;5039639;28;20110;-73
2022/03/06 12:17:01;;;;;;;9.75;3.80;;;;;;;;;;5037841;28;20030;-70
2022/03/06 12:19:32;;;;;;;6.38;3.72;;;;;;;;;;5044233;28;20059;-71
2022/03/06 12:22:14;;;;;;;5.20;3.42;;;;;;;;;;5042639;28;20059;-71
2022/03/06 12:24:44;;;;;;;9.77;3.25;;;;;;;;;;5043639;28;20041;-72
2022/03/06 12:27:12;;;;;;;11.63;3.75;;;;;;;;;;5046851;28;20390;-73
2022/03/06 12:29:48;;;;;;;6.65;3.45;;;;;;;;;;5043063;28;20056;-71
2022/03/06 12:32:25;;;;;;;6.95;3.55;;;;;;;;;;5025964;28;20135;-70
2022/03/06 12:35:11;;;;;;;7.93;3.40;;;;;;;;;;5036409;28;20040;-70
2022/03/06 12:37:38;;;;;;;6.57;3.35;;;;;;;;;;5035791;28;20180;-72
2022/03/06 12:40:13;;;;;;;6.18;2.97;;;;;;;;;;5040622;28;20038;-71
2022/03/06 12:42:42;;;;;;;6.30;3.10;;;;;;;;;;5047175;28;20045;-72
2022/03/06 12:45:10;;;;;;;8.65;3.72;;;;;;;;;;5051812;28;20394;-71
2022/03/06 12:47:39;;;;;;;7.65;3.00;;;;;;;;;;5051850;28;20044;-74
2022/03/06 12:50:09;;;;;;;7.03;3.25;;;;;;;;;;5034400;28;20415;-73
2022/03/06 12:52:37;;;;;;;8.20;3.97;;;;;;;;;;5034369;28;20037;-74
2022/03/06 12:55:06;;;;;;;7.00;3.90;;;;;;;;;;5050700;28;20049;-71
2022/03/06 12:57:39;;;;;;;5.75;3.40;;;;;;;;;;5051166;28;20037;-74
2022/03/06 13:00:08;;;;;;;7.75;3.10;;;;;;;;;;5051901;28;20049;-71
2022/03/06 13:02:36;;;;;;;6.28;2.65;;;;;;;;;;5051848;28;20454;-72
2022/03/06 13:05:06;;;;;;;6.32;3.28;;;;;;;;;;5050327;28;20041;-74
2022/03/06 13:07:34;;;;;;;6.43;3.38;;;;;;;;;;5052218;28;20055;-75
2022/03/06 13:10:07;;;;;;;10.35;3.30;;;;;;;;;;5051977;28;20068;-75
2022/03/06 13:12:36;;;;;;;9.25;3.70;;;;;;;;;;5052340;28;20049;-75
2022/03/06 13:15:17;;;;;;;4.57;2.97;;;;;;;;;;5051691;28;20041;-71
2022/03/06 13:17:46;;;;;;;4.40;3.13;;;;;;;;;;5055604;28;20116;-71
2022/03/06 13:20:15;;;;;;;5.40;3.20;;;;;;;;;;5054308;28;20128;-75
2022/03/06 13:22:43;;;;;;;5.07;3.80;;;;;;;;;;5054045;28;20071;-75
2022/03/06 13:25:11;;;;;;;7.00;3.38;;;;;;;;;;5054649;28;20056;-71
2022/03/06 13:27:41;;;;;;;5.43;2.80;;;;;;;;;;5054184;28;20099;-71
2022/03/06 13:30:12;;;;;;;3.08;2.20;;;;;;;;;;5054736;28;20373;-74
2022/03/06 13:32:47;;;;;;;3.00;2.28;;;;;;;;;;5050664;28;20086;-72
2022/03/06 13:35:34;;;;;;;3.22;2.15;;;;;;;;;;5050842;28;20041;-75
2022/03/06 13:38:08;;;;;;;3.17;2.15;;;;;;;;;;5050286;28;20068;-74
2022/03/06 13:40:37;;;;;;;2.60;1.63;;;;;;;;;;5052757;28;20049;-71
2022/03/06 13:43:06;;;;;;;3.22;2.20;;;;;;;;;;5051892;28;20077;-78
2022/03/06 13:45:34;;;;;;;2.42;2.10;;;;;;;;;;5052475;28;20052;-74
2022/03/06 13:48:06;;;;;;;2.22;2.00;;;;;;;;;;5042092;28;20041;-77
2022/03/06 13:50:36;;;;;;;2.67;2.17;;;;;;;;;;5054380;28;20071;-77
2022/03/06 13:53:07;;;;;;;4.13;2.08;;;;;;;;;;5053742;28;20029;-77
2022/03/06 13:55:37;;;;;;;2.25;1.98;;;;;;;;;;5054669;28;20064;-77
2022/03/06 13:58:11;;;;;;;3.28;2.10;;;;;;;;;;5050513;28;20033;-73
2022/03/06 14:00:51;;;;;;;2.10;1.90;;;;;;;;;;5054483;28;20056;-76
2022/03/06 14:03:26;;;;;;;3.15;1.90;;;;;;;;;;5054237;28;20037;-72
2022/03/06 14:05:55;;;;;;;4.68;1.80;;;;;;;;;;5044748;28;20109;-76
2022/03/06 14:08:26;;;;;;;2.65;2.17;;;;;;;;;;5051560;28;20041;-72
2022/03/06 14:10:56;;;;;;;3.03;2.10;;;;;;;;;;5054221;28;20052;-73
2022/03/06 14:13:32;;;;;;;2.10;1.80;;;;;;;;;;5033828;28;20037;-72
2022/03/06 14:16:01;;;;;;;5.57;2.13;;;;;;;;;;5053609;28;20128;-75
2022/03/06 14:18:33;;;;;;;4.15;2.20;;;;;;;;;;5053264;28;20554;-75
2022/03/06 14:21:07;;;;;;;2.72;1.90;;;;;;;;;;5052353;28;20102;-76
2022/03/06 14:23:34;;;;;;;2.88;2.13;;;;;;;;;;5053525;28;20480;-75
2022/03/06 14:26:02;;;;;;;1.92;1.77;;;;;;;;;;5054053;28;20081;-75
2022/03/06 14:28:31;;;;;;;2.88;1.95;;;;;;;;;;5052054;28;20040;-70
2022/03/06 14:30:59;;;;;;;2.50;1.90;;;;;;;;;;5052654;28;20443;-73
2022/03/06 14:33:28;;;;;;;1.88;1.67;;;;;;;;;;5053985;28;20068;-73
2022/03/06 14:35:58;;;;;;;4.18;2.10;;;;;;;;;;5053006;28;20041;-73
2022/03/06 14:38:25;;;;;;;2.60;2.03;;;;;;;;;;5054353;28;20499;-70
2022/03/06 14:40:53;;;;;;;2.33;2.13;;;;;;;;;;5052702;28;20065;-72
2022/03/06 14:43:20;;;;;;;2.78;2.00;;;;;;;;;;5053837;28;20462;-76
2022/03/06 14:45:48;;;;;;;3.13;2.00;;;;;;;;;;5049457;28;20059;-73
2022/03/06 14:48:16;;;;;;;4.85;2.10;;;;;;;;;;5044563;28;20566;-70
2022/03/06 14:50:43;;;;;;;3.50;2.17;;;;;;;;;;5052954;28;20036;-71
2022/03/06 14:53:11;;;;;;;2.28;1.77;;;;;;;;;;5048664;28;20041;-73
2022/03/06 14:55:38;;;;;;;3.15;2.00;;;;;;;;;;5053243;28;20037;-72